createdAt,value
2017-10-29T00:04:00.692Z,12.8
2017-10-29T00:14:45.224Z,12.7
2017-10-29T00:25:38.046Z,12.7
2017-10-29T00:35:51.885Z,12.6
2017-10-29T00:47:41.692Z,12.6
2017-10-29T00:57:55.501Z,12.6
2017-10-29T01:08:07.723Z,12.6
2017-10-29T01:18:53.202Z,12.6
2017-10-29T01:29:07.466Z,12.6
2017-10-29T01:39:21.635Z,12.6
2017-10-29T01:50:07.286Z,12.5
2017-10-29T02:00:19.021Z,12.5
2017-10-29T02:10:32.987Z,12.6
2017-10-29T02:21:18.293Z,12.5
2017-10-29T02:31:48.255Z,12.5
2017-10-29T02:42:54.175Z,12.4
2017-10-29T02:53:39.195Z,12.4
2017-10-29T03:04:34.462Z,12.3
2017-10-29T03:14:50.301Z,12.3
2017-10-29T03:25:08.153Z,12.1
2017-10-29T03:35:31.590Z,11.9
2017-10-29T03:46:16.760Z,11.6
2017-10-29T03:56:29.934Z,11.5
2017-10-29T04:07:14.631Z,11.2
2017-10-29T04:17:35.095Z,11.2
2017-10-29T04:27:51.711Z,11.1
2017-10-29T04:38:59.705Z,10.9
2017-10-29T04:49:21.006Z,10.8
2017-10-29T04:59:42.949Z,10.8
2017-10-29T05:10:14.088Z,10.7
2017-10-29T05:20:28.356Z,10.6
2017-10-29T05:32:17.240Z,10.5
2017-10-29T05:42:31.239Z,10.4
2017-10-29T05:53:31.785Z,10.1
2017-10-29T06:03:59.835Z,10.1
2017-10-29T06:14:13.612Z,9.9
2017-10-29T06:24:27.565Z,9.7
2017-10-29T06:35:16.268Z,9.4
2017-10-29T06:46:01.325Z,9.3
2017-10-29T06:56:50.794Z,9.2
2017-10-29T07:07:04.294Z,9.2
2017-10-29T07:17:18.639Z,9.2
2017-10-29T07:27:33.206Z,9.3
2017-10-29T07:37:44.956Z,9.4
2017-10-29T07:47:59.333Z,9.7
2017-10-29T07:58:13.727Z,10.4
2017-10-29T08:08:27.844Z,11.2
2017-10-29T08:18:42.152Z,12.0
2017-10-29T08:28:59.925Z,12.9
2017-10-29T08:39:44.947Z,14.3
2017-10-29T08:49:59.370Z,14.3
2017-10-29T09:00:13.623Z,14.1
2017-10-29T09:11:02.901Z,13.4
2017-10-29T09:21:48.079Z,13.2
2017-10-29T09:32:02.619Z,13.2
2017-10-29T09:42:19.353Z,13.2
2017-10-29T09:53:05.075Z,13.1
2017-10-29T10:03:21.104Z,13.1
2017-10-29T10:13:40.299Z,13.3
2017-10-29T10:23:57.786Z,13.6
2017-10-29T10:35:26.452Z,15.4
2017-10-29T10:45:41.457Z,15.4
2017-10-29T10:55:55.222Z,16.0
2017-10-29T11:06:09.730Z,16.0
2017-10-29T11:16:59.094Z,16.9
2017-10-29T11:27:49.587Z,17.7
2017-10-29T11:38:09.053Z,17.7
2017-10-29T11:48:24.141Z,18.1
2017-10-29T11:58:39.876Z,18.3
2017-10-29T12:08:58.179Z,18.4
2017-10-29T12:19:51.110Z,18.3
2017-10-29T12:30:08.175Z,18.4
2017-10-29T12:40:53.997Z,18.7
2017-10-29T12:51:09.160Z,18.7
2017-10-29T13:01:20.783Z,18.8
2017-10-29T13:11:34.903Z,18.8
2017-10-29T13:21:49.284Z,18.5
2017-10-29T13:32:35.309Z,17.6
2017-10-29T13:43:24.388Z,17.5
2017-10-29T13:53:37.684Z,17.4
2017-10-29T14:03:50.209Z,17.2
2017-10-29T14:14:04.246Z,16.6
2017-10-29T14:24:18.554Z,16.2
2017-10-29T14:34:32.640Z,16.1
2017-10-29T14:45:21.535Z,15.6
2017-10-29T14:55:35.812Z,15.6
2017-10-29T15:05:50.622Z,15.3
2017-10-29T15:16:04.672Z,14.9
2017-10-29T15:26:17.002Z,14.3
2017-10-29T15:36:30.906Z,13.8
2017-10-29T15:46:45.220Z,13.3
2017-10-29T15:56:59.961Z,12.7
2017-10-29T16:07:13.562Z,12.2
2017-10-29T16:18:01.231Z,11.4
2017-10-29T16:28:14.658Z,11.4
2017-10-29T16:51:47.417Z,10.6
2017-10-29T17:02:34.494Z,9.8
2017-10-29T17:12:48.332Z,9.8
2017-10-29T17:23:05.855Z,9.5
2017-10-29T17:33:23.320Z,9.2
2017-10-29T17:44:20.999Z,8.7
2017-10-29T17:55:18.303Z,8.5
2017-10-29T18:06:05.662Z,8.3
2017-10-29T18:17:36.103Z,8.1
2017-10-29T18:27:52.350Z,8.1
2017-10-29T18:38:37.866Z,7.8
2017-10-29T18:49:23.348Z,7.7
2017-10-29T19:00:14.980Z,7.6
2017-10-29T19:11:02.919Z,7.5
2017-10-29T19:21:55.153Z,7.4
2017-10-29T19:32:44.021Z,7.4
2017-10-29T19:44:14.955Z,7.3
2017-10-29T20:12:01.573Z,7.1
2017-10-29T20:22:16.075Z,7.1
2017-10-29T20:33:04.853Z,6.9
2017-10-29T20:43:51.098Z,6.8
2017-10-29T20:54:04.878Z,6.8
2017-10-29T21:04:58.664Z,6.7
2017-10-29T21:15:12.002Z,6.7
2017-10-29T21:25:26.649Z,6.7
2017-10-29T21:35:40.961Z,6.7
2017-10-29T21:45:54.657Z,6.6
2017-10-29T21:56:09.032Z,6.6
2017-10-29T22:06:23.153Z,6.5
2017-10-29T22:16:35.798Z,6.4
2017-10-29T22:27:21.421Z,6.4
2017-10-29T22:38:09.204Z,6.4
2017-10-29T22:48:54.669Z,6.4
2017-10-29T22:59:39.712Z,6.3
2017-10-29T23:09:53.840Z,6.3
2017-10-29T23:20:08.028Z,6.2
2017-10-29T23:30:22.369Z,6.1
2017-10-29T23:40:36.795Z,6.0
2017-10-29T23:51:23.985Z,5.8
